createdAt,value
2019-04-21T00:01:24.336Z,8.06
2019-04-21T00:06:49.207Z,8.01
2019-04-21T00:11:55.295Z,7.83
2019-04-21T00:16:44.319Z,7.76
2019-04-21T00:21:49.221Z,7.75
2019-04-21T00:27:06.926Z,7.62
2019-04-21T00:32:05.582Z,7.67
2019-04-21T00:37:09.434Z,7.57
2019-04-21T00:42:22.754Z,7.56
2019-04-21T00:47:30.333Z,7.39
2019-04-21T00:52:51.267Z,7.40
2019-04-21T00:57:53.426Z,7.20
2019-04-21T01:07:54.633Z,5.75
2019-04-21T01:13:02.982Z,6.09
2019-04-21T01:18:04.722Z,5.95
2019-04-21T01:22:49.816Z,6.19
2019-04-21T01:28:10.054Z,6.08
2019-04-21T01:33:21.991Z,5.74
2019-04-21T01:38:32.759Z,5.66
2019-04-21T01:43:28.128Z,5.69
2019-04-21T01:48:32.017Z,5.71
2019-04-21T01:53:44.793Z,5.76
2019-04-21T01:58:40.545Z,5.74
2019-04-21T02:04:09.456Z,5.69
2019-04-21T02:09:02.154Z,5.65
2019-04-21T02:14:23.002Z,5.62
2019-04-21T02:19:08.371Z,5.65
2019-04-21T02:24:23.541Z,5.36
2019-04-21T02:29:23.006Z,5.55
2019-04-21T02:34:46.447Z,5.42
2019-04-21T02:39:49.018Z,5.39
2019-04-21T02:45:01.445Z,5.39
2019-04-21T02:50:00.377Z,5.22
2019-04-21T02:55:03.271Z,5.28
2019-04-21T03:00:06.864Z,5.11
2019-04-21T03:05:46.840Z,4.86
2019-04-21T03:20:44.446Z,4.89
2019-04-21T03:26:00.882Z,4.69
2019-04-21T03:31:19.671Z,4.90
2019-04-21T03:36:33.421Z,4.77
2019-04-21T03:41:22.158Z,4.70
2019-04-21T03:46:16.506Z,4.64
2019-04-21T03:51:20.979Z,4.68
2019-04-21T03:56:42.381Z,4.48
2019-04-21T04:01:48.930Z,4.47
2019-04-21T04:07:06.096Z,4.25
2019-04-21T04:22:15.324Z,4.08
2019-04-21T04:32:23.638Z,4.16
2019-04-21T04:47:36.991Z,4.06
2019-04-21T04:52:38.397Z,3.88
2019-04-21T04:57:55.322Z,3.94
2019-04-21T05:02:48.471Z,4.15
2019-04-21T05:07:58.006Z,4.14
2019-04-21T05:12:58.770Z,4.22
2019-04-21T05:18:10.871Z,4.34
2019-04-21T05:23:08.926Z,4.51
2019-04-21T05:28:01.022Z,4.71
2019-04-21T05:33:34.567Z,4.91
2019-04-21T05:38:33.098Z,5.05
2019-04-21T05:43:39.163Z,5.32
2019-04-21T05:49:02.879Z,5.37
2019-04-21T05:54:17.072Z,5.55
2019-04-21T05:59:13.523Z,5.69
2019-04-21T06:04:45.285Z,5.90
2019-04-21T06:09:32.282Z,6.03
2019-04-21T06:14:37.277Z,6.14
2019-04-21T06:19:44.802Z,6.32
2019-04-21T06:25:16.195Z,6.52
2019-04-21T06:29:57.545Z,6.76
2019-04-21T06:40:15.132Z,7.17
2019-04-21T06:45:31.301Z,7.79
2019-04-21T06:50:14.564Z,7.98
2019-04-21T06:55:19.914Z,8.16
2019-04-21T07:00:23.052Z,8.58
2019-04-21T07:05:33.518Z,9.34
2019-04-21T07:10:35.090Z,9.44
2019-04-21T07:15:43.539Z,9.53
2019-04-21T07:20:47.775Z,9.85
2019-04-21T07:25:53.146Z,10.15
2019-04-21T07:31:00.729Z,10.34
2019-04-21T07:35:57.836Z,10.84
2019-04-21T07:40:58.756Z,11.49
2019-04-21T07:46:04.252Z,12.16
2019-04-21T07:51:33.982Z,12.16
2019-04-21T07:56:20.264Z,13.30
2019-04-21T08:01:45.453Z,13.45
2019-04-21T08:06:47.159Z,14.50
2019-04-21T08:11:48.782Z,15.08
2019-04-21T08:16:57.744Z,15.38
2019-04-21T08:22:09.639Z,15.70
2019-04-21T08:27:13.326Z,16.08
2019-04-21T08:32:19.881Z,16.34
2019-04-21T08:37:18.552Z,16.10
2019-04-21T08:42:26.929Z,16.90
2019-04-21T08:47:25.635Z,17.32
2019-04-21T08:57:53.792Z,17.45
2019-04-21T09:02:56.115Z,17.60
2019-04-21T09:08:00.403Z,17.97
2019-04-21T09:12:59.673Z,18.32
2019-04-21T09:18:05.400Z,18.29
2019-04-21T09:23:15.945Z,19.04
2019-04-21T09:28:11.181Z,18.58
2019-04-21T09:33:05.551Z,18.60
2019-04-21T09:38:19.387Z,18.90
2019-04-21T09:43:25.657Z,19.39
2019-04-21T09:48:22.168Z,19.72
2019-04-21T09:53:31.234Z,19.67
2019-04-21T09:58:32.818Z,20.08
2019-04-21T10:03:42.760Z,20.03
2019-04-21T10:08:39.521Z,19.53
2019-04-21T10:13:44.242Z,20.11
2019-04-21T10:18:48.177Z,19.94
2019-04-21T10:23:52.253Z,20.22
2019-04-21T10:29:04.316Z,20.36
2019-04-21T10:34:01.045Z,20.10
2019-04-21T10:39:06.053Z,20.19
2019-04-21T10:44:09.445Z,20.48
2019-04-21T10:49:12.912Z,20.48
2019-04-21T10:54:16.243Z,20.36
2019-04-21T10:59:20.487Z,20.42
2019-04-21T11:04:31.357Z,20.42
2019-04-21T11:09:31.881Z,20.28
2019-04-21T11:14:35.655Z,20.43
2019-04-21T11:19:39.085Z,21.29
2019-04-21T11:24:42.986Z,20.94
2019-04-21T11:29:47.441Z,21.19
2019-04-21T11:34:51.515Z,21.04
2019-04-21T11:40:00.147Z,21.12
2019-04-21T11:45:00.728Z,20.89
2019-04-21T11:50:05.707Z,21.61
2019-04-21T11:55:09.116Z,21.51
2019-04-21T12:00:13.642Z,21.60
2019-04-21T12:05:17.321Z,22.01
2019-04-21T12:10:21.629Z,21.76
2019-04-21T12:15:25.130Z,21.86
2019-04-21T12:20:28.725Z,22.10
2019-04-21T12:25:47.268Z,22.40
2019-04-21T12:30:53.658Z,22.31
2019-04-21T12:35:57.822Z,21.97
2019-04-21T12:41:02.408Z,22.05
2019-04-21T12:46:05.848Z,22.88
2019-04-21T12:51:10.108Z,22.68
2019-04-21T12:56:13.865Z,22.14
2019-04-21T13:01:17.313Z,22.52
2019-04-21T13:06:21.396Z,23.18
2019-04-21T13:11:25.518Z,23.24
2019-04-21T13:16:29.485Z,22.74
2019-04-21T13:21:34.217Z,22.84
2019-04-21T13:26:45.485Z,23.06
2019-04-21T13:31:42.705Z,23.20
2019-04-21T13:36:47.730Z,22.88
2019-04-21T13:42:02.925Z,23.41
2019-04-21T13:46:58.745Z,23.78
2019-04-21T13:52:02.692Z,23.74
2019-04-21T13:57:06.107Z,23.65
2019-04-21T14:02:11.206Z,23.17
2019-04-21T14:07:14.685Z,23.50
2019-04-21T14:12:19.217Z,23.42
2019-04-21T14:17:22.730Z,23.63
2019-04-21T14:22:26.567Z,23.71
2019-04-21T14:27:30.165Z,23.70
2019-04-21T14:32:33.840Z,24.01
2019-04-21T14:37:38.376Z,24.60
2019-04-21T14:42:42.297Z,24.56
2019-04-21T14:47:48.272Z,25.35
2019-04-21T14:53:09.924Z,25.14
2019-04-21T14:58:13.332Z,25.74
2019-04-21T15:03:23.905Z,26.89
2019-04-21T15:08:28.721Z,26.58
2019-04-21T15:13:32.528Z,26.43
2019-04-21T15:18:36.827Z,26.63
2019-04-21T15:23:40.382Z,26.54
2019-04-21T15:28:44.551Z,25.42
2019-04-21T15:33:49.476Z,26.42
2019-04-21T15:38:54.096Z,26.13
2019-04-21T15:43:59.690Z,25.76
2019-04-21T15:49:02.819Z,25.72
2019-04-21T15:54:06.798Z,25.90
2019-04-21T15:59:12.614Z,24.80
2019-04-21T16:04:16.846Z,25.93
2019-04-21T16:09:23.296Z,25.76
2019-04-21T16:14:26.906Z,25.18
2019-04-21T16:19:31.233Z,25.66
2019-04-21T16:24:35.631Z,24.22
2019-04-21T16:29:39.529Z,24.37
2019-04-21T16:34:50.160Z,23.81
2019-04-21T16:39:49.419Z,24.27
2019-04-21T16:44:52.832Z,23.67
2019-04-21T16:49:56.203Z,23.18
2019-04-21T16:55:04.639Z,22.98
2019-04-21T17:05:18.387Z,22.98
2019-04-21T17:10:22.432Z,22.15
2019-04-21T17:15:46.124Z,21.64
2019-04-21T17:20:43.069Z,21.36
2019-04-21T17:25:37.050Z,21.17
2019-04-21T17:30:40.517Z,20.67
2019-04-21T17:35:44.912Z,20.36
2019-04-21T17:40:49.513Z,19.99
2019-04-21T17:45:53.367Z,19.86
2019-04-21T17:51:01.294Z,19.65
2019-04-21T17:56:31.540Z,19.28
2019-04-21T18:01:35.307Z,18.96
2019-04-21T18:06:47.985Z,18.74
2019-04-21T18:11:56.831Z,18.53
2019-04-21T18:16:41.587Z,18.35
2019-04-21T18:21:56.080Z,18.09
2019-04-21T18:27:00.081Z,18.01
2019-04-21T18:32:01.104Z,17.77
2019-04-21T18:37:32.604Z,17.48
2019-04-21T18:43:15.291Z,17.51
2019-04-21T18:48:02.368Z,17.60
2019-04-21T18:53:08.974Z,17.47
2019-04-21T18:58:03.193Z,16.87
2019-04-21T19:03:09.908Z,16.63
2019-04-21T19:08:25.853Z,16.21
2019-04-21T19:13:53.651Z,15.74
2019-04-21T19:18:47.099Z,15.53
2019-04-21T19:23:57.378Z,15.40
2019-04-21T19:29:06.264Z,15.23
2019-04-21T19:33:51.618Z,15.08
2019-04-21T19:38:58.277Z,14.95
2019-04-21T19:44:10.877Z,14.66
2019-04-21T19:49:24.153Z,14.65
2019-04-21T19:54:13.331Z,14.32
2019-04-21T19:59:14.031Z,14.01
2019-04-21T20:04:12.554Z,14.09
2019-04-21T20:09:32.197Z,13.50
2019-04-21T20:19:26.699Z,13.68
2019-04-21T20:24:34.003Z,13.49
2019-04-21T20:29:57.629Z,13.35
2019-04-21T20:35:01.497Z,13.10
2019-04-21T20:39:53.928Z,12.76
2019-04-21T20:45:22.086Z,12.87
2019-04-21T20:50:11.377Z,12.68
2019-04-21T20:55:15.574Z,12.54
2019-04-21T21:00:32.412Z,12.32
2019-04-21T21:05:27.360Z,12.18
2019-04-21T21:10:38.605Z,12.33
2019-04-21T21:16:01.142Z,12.18
2019-04-21T21:20:49.684Z,12.14
2019-04-21T21:25:54.468Z,12.13
2019-04-21T21:31:02.716Z,12.06
2019-04-21T21:36:06.670Z,11.73
2019-04-21T21:41:03.315Z,11.79
2019-04-21T21:46:01.573Z,11.59
2019-04-21T21:51:10.081Z,11.64
2019-04-21T21:56:08.995Z,11.08
2019-04-21T22:01:15.351Z,11.08
2019-04-21T22:06:23.118Z,10.90
2019-04-21T22:11:24.335Z,11.01
2019-04-21T22:16:39.006Z,11.02
2019-04-21T22:21:53.795Z,10.95
2019-04-21T22:26:39.046Z,10.92
2019-04-21T22:31:44.398Z,10.46
2019-04-21T22:36:58.952Z,10.39
2019-04-21T22:42:01.734Z,10.29
2019-04-21T22:47:07.517Z,10.44
2019-04-21T22:52:11.318Z,10.47
2019-04-21T22:57:14.838Z,10.41
2019-04-21T23:02:20.440Z,10.45
2019-04-21T23:07:22.151Z,10.56
2019-04-21T23:12:28.223Z,10.15
2019-04-21T23:17:50.740Z,10.11
2019-04-21T23:23:00.912Z,9.77
2019-04-21T23:27:57.402Z,9.54
2019-04-21T23:32:52.658Z,9.43
2019-04-21T23:37:55.624Z,9.39
2019-04-21T23:42:55.139Z,8.93
2019-04-21T23:48:14.604Z,9.26
2019-04-21T23:53:03.713Z,8.94
2019-04-21T23:58:13.379Z,8.84
